Time;durP1;ratioP1;P1;durP2;ratioP2;P2;SDS_P1;SDS_P2;PMS_P1;PMS_P2;Temp;Humidity;BMP_temperature;BMP_pressure;BME280_temperature;BME280_humidity;BME280_pressure;Samples;Min_cycle;Max_cycle;Signal;HPM_P1;HPM_P2
2021/03/14 00:00:46;;;;;;;10.73;1.63;;;5.20;99.90;;;;;;5042271;28;20106;-69
2021/03/14 00:03:15;;;;;;;3.87;0.93;;;5.20;99.90;;;;;;5042375;28;20048;-69
2021/03/14 00:05:44;;;;;;;3.87;1.27;;;5.20;99.90;;;;;;5042665;28;20044;-69
2021/03/14 00:08:11;;;;;;;6.83;1.87;;;5.10;99.90;;;;;;5043783;28;20052;-69
2021/03/14 00:10:40;;;;;;;6.13;1.00;;;5.20;99.90;;;;;;5042850;28;20052;-69
2021/03/14 00:13:07;;;;;;;3.47;1.23;;;5.20;99.90;;;;;;5036736;28;20076;-69
2021/03/14 00:15:33;;;;;;;4.23;0.80;;;5.20;99.90;;;;;;5038819;28;20052;-69
2021/03/14 00:18:00;;;;;;;4.87;1.00;;;5.20;99.90;;;;;;5041339;28;20461;-69
2021/03/14 00:20:26;;;;;;;;;;;5.10;99.90;;;;;;5039158;28;20174;-69
2021/03/14 00:22:52;;;;;;;5.40;1.03;;;5.10;99.90;;;;;;5037197;28;19963;-69
2021/03/14 00:25:20;;;;;;;2.33;0.80;;;5.00;99.90;;;;;;5039611;28;20586;-69
2021/03/14 00:27:47;;;;;;;4.77;1.13;;;5.10;99.90;;;;;;5043325;28;20521;-69
2021/03/14 00:30:16;;;;;;;3.83;1.13;;;5.10;99.90;;;;;;5033204;28;20040;-69
2021/03/14 00:32:44;;;;;;;3.70;1.40;;;5.10;99.90;;;;;;5031760;28;20782;-69
2021/03/14 00:35:13;;;;;;;4.23;1.10;;;5.10;99.90;;;;;;5033619;28;20056;-69
2021/03/14 00:37:39;;;;;;;4.87;1.13;;;5.20;99.90;;;;;;5031414;28;20437;-69
2021/03/14 00:40:08;;;;;;;3.50;1.30;;;5.10;99.90;;;;;;5032495;28;20114;-69
2021/03/14 00:42:35;;;;;;;3.27;1.00;;;4.90;99.90;;;;;;5032258;28;20052;-69
2021/03/14 00:45:04;;;;;;;2.87;0.83;;;4.80;99.90;;;;;;5034309;28;20525;-69
2021/03/14 00:47:30;;;;;;;7.13;1.30;;;4.70;99.90;;;;;;5040285;28;20056;-69
2021/03/14 00:49:57;;;;;;;2.43;0.90;;;4.70;99.90;;;;;;5040903;28;20057;-69
2021/03/14 00:52:23;;;;;;;6.37;0.97;;;4.70;99.90;;;;;;5041209;28;20056;-69
2021/03/14 00:54:50;;;;;;;3.77;0.77;;;4.70;99.90;;;;;;5041474;28;20052;-69
2021/03/14 00:57:16;;;;;;;2.10;0.60;;;4.60;99.90;;;;;;5041239;28;20795;-69
2021/03/14 00:59:43;;;;;;;2.13;0.80;;;4.60;99.90;;;;;;5039684;28;20053;-69
2021/03/14 01:02:10;;;;;;;4.33;1.10;;;4.60;99.90;;;;;;5040229;28;20101;-69
2021/03/14 01:04:36;;;;;;;2.67;0.80;;;4.60;99.90;;;;;;5038333;28;20048;-69
2021/03/14 01:07:03;;;;;;;4.33;1.03;;;4.60;99.90;;;;;;5039166;28;20306;-69
2021/03/14 01:09:30;;;;;;;2.57;0.60;;;4.70;99.90;;;;;;5035991;28;20083;-69
2021/03/14 01:11:56;;;;;;;2.33;0.87;;;4.60;99.90;;;;;;5040105;28;20045;-69
2021/03/14 01:14:23;;;;;;;3.90;0.80;;;4.50;99.90;;;;;;5039995;28;20341;-69
2021/03/14 01:16:49;;;;;;;3.67;0.90;;;4.50;99.90;;;;;;5038512;28;20160;-69
2021/03/14 01:19:17;;;;;;;3.63;0.93;;;4.50;99.90;;;;;;5039189;28;20432;-69
2021/03/14 01:21:43;;;;;;;3.40;1.80;;;4.40;99.90;;;;;;5039143;28;20071;-69
2021/03/14 01:24:10;;;;;;;6.53;1.10;;;4.40;99.90;;;;;;5036703;28;20056;-69
2021/03/14 01:26:36;;;;;;;2.77;0.80;;;4.50;99.90;;;;;;5040935;28;20044;-69
2021/03/14 01:29:03;;;;;;;2.73;0.50;;;4.40;99.90;;;;;;5040206;28;20130;-69
2021/03/14 01:31:30;;;;;;;2.77;0.90;;;4.40;99.90;;;;;;5039400;28;20048;-69
2021/03/14 01:33:56;;;;;;;3.63;1.30;;;4.40;99.90;;;;;;5038342;28;20052;-69
2021/03/14 01:36:24;;;;;;;5.63;1.27;;;4.50;99.90;;;;;;5038874;28;20091;-69
2021/03/14 01:38:50;;;;;;;3.77;0.97;;;4.50;99.90;;;;;;5038777;28;20067;-69
2021/03/14 01:41:17;;;;;;;3.87;0.97;;;4.60;99.90;;;;;;5038926;28;20088;-69
2021/03/14 01:43:43;;;;;;;4.87;1.10;;;4.50;99.90;;;;;;5038859;28;20088;-69
2021/03/14 01:46:10;;;;;;;6.60;0.97;;;4.50;99.90;;;;;;5038519;28;21544;-69
2021/03/14 01:48:37;;;;;;;4.77;0.70;;;4.50;99.90;;;;;;5035700;28;20056;-69
2021/03/14 01:51:05;;;;;;;1.27;0.83;;;4.40;99.90;;;;;;5037262;28;20055;-69
2021/03/14 01:53:33;;;;;;;3.90;0.93;;;4.30;99.90;;;;;;5031376;28;20072;-69
2021/03/14 01:56:00;;;;;;;4.23;0.83;;;4.30;99.90;;;;;;5038366;28;20048;-69
2021/03/14 01:58:27;;;;;;;3.87;0.70;;;4.30;99.90;;;;;;5038080;28;20061;-69
2021/03/14 02:00:55;;;;;;;5.73;0.93;;;4.30;99.90;;;;;;5038551;28;20072;-69
2021/03/14 02:03:22;;;;;;;6.23;1.07;;;4.30;99.90;;;;;;5037297;28;20084;-69
2021/03/14 02:05:49;;;;;;;4.13;0.70;;;4.40;99.90;;;;;;5035222;28;20052;-69
2021/03/14 02:08:16;;;;;;;2.40;0.80;;;4.30;99.90;;;;;;5039076;28;20091;-69
2021/03/14 02:10:48;;;;;;;2.83;1.00;;;4.40;99.90;;;;;;5040821;28;20040;-69
2021/03/14 02:13:18;;;;;;;2.93;0.50;;;4.40;99.90;;;;;;5036922;28;20052;-69
2021/03/14 02:15:47;;;;;;;2.93;0.90;;;4.30;99.90;;;;;;5039209;28;20087;-69
2021/03/14 02:18:14;;;;;;;3.33;0.90;;;4.30;99.90;;;;;;5037364;28;20091;-69
2021/03/14 02:20:42;;;;;;;3.63;0.63;;;4.30;99.90;;;;;;5038627;28;20159;-69
2021/03/14 02:23:19;;;;;;;5.37;1.10;;;4.30;99.90;;;;;;5036993;28;20076;-69
2021/03/14 02:25:49;;;;;;;5.50;1.10;;;4.30;99.90;;;;;;5038326;28;20052;-69
2021/03/14 02:28:17;;;;;;;2.13;1.00;;;4.30;99.90;;;;;;5037134;28;20088;-69
2021/03/14 02:30:44;;;;;;;2.13;1.00;;;4.20;99.90;;;;;;5037775;28;20076;-69
2021/03/14 02:33:12;;;;;;;4.63;0.87;;;4.30;99.90;;;;;;5036913;28;20740;-69
2021/03/14 02:35:39;;;;;;;6.13;1.00;;;4.30;99.90;;;;;;5040053;28;20076;-69
2021/03/14 02:38:06;;;;;;;3.20;0.80;;;4.20;99.90;;;;;;5038486;28;20159;-69
2021/03/14 02:40:34;;;;;;;2.47;0.53;;;4.20;99.90;;;;;;5038332;28;20083;-69
2021/03/14 02:43:02;;;;;;;2.30;0.77;;;4.30;99.90;;;;;;5037498;28;20052;-69
2021/03/14 02:45:29;;;;;;;5.23;0.90;;;4.40;99.90;;;;;;5037506;28;20117;-69
2021/03/14 02:47:57;;;;;;;8.07;1.20;;;4.50;99.90;;;;;;5037866;28;20524;-69
2021/03/14 02:50:24;;;;;;;2.87;0.90;;;4.40;99.90;;;;;;5037791;28;20044;-69
2021/03/14 02:52:51;;;;;;;3.07;0.80;;;4.60;99.90;;;;;;5038142;28;20044;-69
2021/03/14 02:55:21;;;;;;;2.80;0.80;;;4.60;99.90;;;;;;5038948;28;21370;-69
2021/03/14 02:57:50;;;;;;;3.60;1.20;;;4.60;99.90;;;;;;5037430;28;20067;-69
2021/03/14 03:00:20;;;;;;;2.40;1.00;;;4.50;99.90;;;;;;5038174;28;20137;-69
2021/03/14 03:02:48;;;;;;;8.00;1.50;;;4.50;99.90;;;;;;5038541;28;20040;-70
2021/03/14 03:05:16;;;;;;;11.00;1.33;;;4.50;99.90;;;;;;5039512;28;20076;-69
2021/03/14 03:07:45;;;;;;;3.37;1.27;;;4.60;99.90;;;;;;5039863;28;20161;-69
2021/03/14 03:10:13;;;;;;;3.27;1.00;;;4.70;99.90;;;;;;5038623;28;20076;-69
2021/03/14 03:12:41;;;;;;;6.83;1.37;;;4.80;99.90;;;;;;5043108;28;20560;-70
2021/03/14 03:15:08;;;;;;;3.50;0.97;;;4.60;99.90;;;;;;5051642;28;20503;-70
2021/03/14 03:17:38;;;;;;;5.60;1.00;;;4.70;99.90;;;;;;5043486;28;20040;-69
2021/03/14 03:20:09;;;;;;;10.80;1.50;;;4.70;99.90;;;;;;5037922;28;20064;-69
2021/03/14 03:22:35;;;;;;;7.23;1.10;;;4.80;99.90;;;;;;5037489;28;20084;-69
2021/03/14 03:25:03;;;;;;;4.27;1.10;;;4.70;99.90;;;;;;5038173;28;20055;-69
2021/03/14 03:27:29;;;;;;;5.33;1.20;;;4.60;99.90;;;;;;5037768;28;20048;-69
2021/03/14 03:29:56;;;;;;;7.27;1.13;;;4.60;99.90;;;;;;5037703;28;20732;-69
2021/03/14 03:32:22;;;;;;;5.00;1.00;;;4.70;99.90;;;;;;5037946;28;20049;-69
2021/03/14 03:34:49;;;;;;;5.60;1.43;;;4.70;99.90;;;;;;5037558;28;20063;-69
2021/03/14 03:37:16;;;;;;;4.97;1.10;;;4.60;99.90;;;;;;5037874;28;20048;-69
2021/03/14 03:39:43;;;;;;;6.17;1.10;;;4.60;99.90;;;;;;5038549;28;20080;-69
2021/03/14 03:42:17;;;;;;;2.67;1.10;;;4.50;99.90;;;;;;5038071;28;21142;-69
2021/03/14 03:44:44;;;;;;;6.17;1.57;;;4.60;99.90;;;;;;5036033;28;20063;-69
2021/03/14 03:47:14;;;;;;;3.10;1.13;;;4.60;99.90;;;;;;5038017;28;20094;-69
2021/03/14 03:49:44;;;;;;;4.30;1.10;;;4.50;99.90;;;;;;5039298;28;20576;-69
2021/03/14 03:52:12;;;;;;;6.67;1.40;;;4.60;99.90;;;;;;5036975;28;20049;-69
2021/03/14 03:54:40;;;;;;;3.57;1.10;;;4.50;99.90;;;;;;5037959;28;20048;-69
2021/03/14 03:57:07;;;;;;;8.30;1.43;;;4.50;99.90;;;;;;5037914;28;20052;-69
2021/03/14 03:59:37;;;;;;;5.20;1.33;;;4.40;99.90;;;;;;5043035;28;20040;-69
2021/03/14 04:02:05;;;;;;;2.13;0.80;;;4.30;99.90;;;;;;5043146;28;20118;-69
2021/03/14 04:04:34;;;;;;;2.87;0.90;;;4.30;99.90;;;;;;5048292;28;20117;-69
2021/03/14 04:07:02;;;;;;;5.73;1.07;;;4.30;99.90;;;;;;5056881;28;20056;-69
2021/03/14 04:09:29;;;;;;;6.10;1.43;;;4.40;99.90;;;;;;5046964;28;20094;-69
2021/03/14 04:11:56;;;;;;;2.90;1.00;;;4.40;99.90;;;;;;5042548;28;20052;-69
2021/03/14 04:14:24;;;;;;;2.53;1.27;;;4.30;99.90;;;;;;5041378;28;20044;-69
2021/03/14 04:16:53;;;;;;;5.20;1.37;;;4.40;99.90;;;;;;5045206;28;20048;-69
2021/03/14 04:19:25;;;;;;;7.23;1.53;;;4.40;99.90;;;;;;5042937;28;20051;-69
2021/03/14 04:21:53;;;;;;;6.83;1.67;;;4.50;99.90;;;;;;5042081;28;21160;-69
2021/03/14 04:24:21;;;;;;;5.33;1.53;;;4.40;99.90;;;;;;5041114;28;20052;-69
2021/03/14 04:26:48;;;;;;;3.33;1.20;;;4.30;99.90;;;;;;5042951;28;20052;-69
2021/03/14 04:29:16;;;;;;;6.33;1.63;;;4.40;99.90;;;;;;5041217;28;20053;-69
2021/03/14 04:31:45;;;;;;;7.27;1.53;;;4.40;99.90;;;;;;5040720;28;20325;-69
2021/03/14 04:34:13;;;;;;;8.97;2.40;;;4.40;99.90;;;;;;5040185;28;20064;-69
2021/03/14 04:36:41;;;;;;;4.83;1.30;;;4.50;99.90;;;;;;5041386;28;20040;-69
2021/03/14 04:39:09;;;;;;;5.67;1.50;;;4.40;99.90;;;;;;5040713;28;20068;-69
2021/03/14 04:41:37;;;;;;;5.33;1.40;;;4.40;99.90;;;;;;5041720;28;20056;-69
2021/03/14 04:44:05;;;;;;;5.60;1.30;;;4.60;99.90;;;;;;5039532;28;20052;-69
2021/03/14 04:46:33;;;;;;;8.40;1.73;;;4.50;99.90;;;;;;5042445;28;20044;-69
2021/03/14 04:49:00;;;;;;;5.43;1.50;;;4.50;99.90;;;;;;5041963;28;20060;-69
2021/03/14 04:51:29;;;;;;;5.97;1.40;;;4.50;99.90;;;;;;5041938;28;20048;-69
2021/03/14 04:53:57;;;;;;;7.43;1.40;;;4.50;99.90;;;;;;5042880;28;20122;-69
2021/03/14 04:56:25;;;;;;;11.10;2.37;;;4.60;99.90;;;;;;5042065;28;20048;-69
2021/03/14 04:58:52;;;;;;;8.03;1.90;;;4.50;99.90;;;;;;5042684;28;20058;-69
2021/03/14 05:01:20;;;;;;;7.90;2.97;;;4.50;99.90;;;;;;5042728;28;20099;-69
2021/03/14 05:03:50;;;;;;;12.20;2.40;;;4.50;99.90;;;;;;5040158;28;20055;-68
2021/03/14 05:06:18;;;;;;;7.17;1.87;;;4.40;99.90;;;;;;5041606;28;20476;-69
2021/03/14 05:08:46;;;;;;;7.77;2.10;;;4.30;99.90;;;;;;5040547;28;20486;-69
2021/03/14 05:11:16;;;;;;;9.97;2.30;;;4.30;99.90;;;;;;5040536;28;20421;-69
2021/03/14 05:13:44;;;;;;;11.27;2.40;;;4.20;99.90;;;;;;5041450;28;20079;-69
2021/03/14 05:16:12;;;;;;;10.63;2.27;;;4.30;99.90;;;;;;5042386;28;20058;-69
2021/03/14 05:18:39;;;;;;;9.47;2.60;;;4.30;99.90;;;;;;5042928;28;20224;-69
2021/03/14 05:21:07;;;;;;;6.60;2.37;;;4.20;99.90;;;;;;5041799;28;20086;-69
2021/03/14 05:23:34;;;;;;;8.67;2.40;;;4.10;99.90;;;;;;5041417;28;20095;-69
2021/03/14 05:26:02;;;;;;;6.80;1.77;;;4.00;99.90;;;;;;5040377;28;20048;-68
2021/03/14 05:28:29;;;;;;;9.63;2.90;;;4.00;99.90;;;;;;5040145;28;20048;-68
2021/03/14 05:30:56;;;;;;;6.47;3.00;;;4.00;99.90;;;;;;5039863;28;20133;-70
2021/03/14 05:33:22;;;;;;;9.00;2.37;;;3.90;99.90;;;;;;5038076;28;20110;-69
2021/03/14 05:35:49;;;;;;;8.17;2.83;;;3.90;99.90;;;;;;5040265;28;20091;-68
2021/03/14 05:38:16;;;;;;;9.13;2.80;;;3.90;99.90;;;;;;5039064;28;20048;-69
2021/03/14 05:40:43;;;;;;;5.47;2.37;;;3.90;99.90;;;;;;5040469;28;20053;-69
2021/03/14 05:43:10;;;;;;;5.90;2.40;;;4.00;99.90;;;;;;5040257;28;20060;-69
2021/03/14 05:45:37;;;;;;;8.87;2.93;;;4.00;99.90;;;;;;5043560;28;20043;-69
2021/03/14 05:48:05;;;;;;;9.40;2.40;;;4.00;99.90;;;;;;5046407;28;20056;-69
2021/03/14 05:50:31;;;;;;;8.30;2.93;;;4.00;99.90;;;;;;5044389;28;20527;-69
2021/03/14 05:53:00;;;;;;;10.93;3.10;;;3.90;99.90;;;;;;5043633;28;20467;-69
2021/03/14 05:55:28;;;;;;;7.63;2.47;;;4.10;99.90;;;;;;5045387;28;20052;-69
2021/03/14 05:57:55;;;;;;;8.27;2.80;;;4.10;99.90;;;;;;5042597;28;20049;-69
2021/03/14 06:00:26;;;;;;;14.00;2.83;;;4.10;99.90;;;;;;5042632;28;20084;-69
2021/03/14 06:02:54;;;;;;;7.70;2.60;;;4.10;99.90;;;;;;5042148;28;20060;-69
2021/03/14 06:05:21;;;;;;;9.33;2.43;;;4.10;99.90;;;;;;5043048;28;20125;-68
2021/03/14 06:07:48;;;;;;;7.27;2.33;;;4.10;99.90;;;;;;5044586;28;20159;-68
2021/03/14 06:10:16;;;;;;;7.53;2.23;;;4.00;99.90;;;;;;5042837;28;20102;-69
2021/03/14 06:12:45;;;;;;;6.03;2.37;;;4.10;99.90;;;;;;5042703;28;20055;-69
2021/03/14 06:15:12;;;;;;;5.50;3.33;;;4.20;99.90;;;;;;5042540;28;20512;-69
2021/03/14 06:17:39;;;;;;;8.60;2.30;;;4.10;99.90;;;;;;5043820;28;20555;-69
2021/03/14 06:20:07;;;;;;;5.03;2.43;;;4.10;99.90;;;;;;5043416;28;20060;-69
2021/03/14 06:22:34;;;;;;;4.33;1.80;;;4.10;99.90;;;;;;5042861;28;20079;-69
2021/03/14 06:25:00;;;;;;;5.50;2.70;;;4.20;99.90;;;;;;5042995;28;20059;-69
2021/03/14 06:27:32;;;;;;;4.43;1.90;;;4.20;99.90;;;;;;5043096;28;20072;-68
2021/03/14 06:30:00;;;;;;;5.73;1.90;;;4.20;99.90;;;;;;5043137;28;20060;-68
2021/03/14 06:32:27;;;;;;;4.17;2.30;;;4.10;99.90;;;;;;5041185;28;20052;-69
2021/03/14 06:35:12;;;;;;;5.93;2.20;;;4.10;99.90;;;;;;5044648;28;20052;-69
2021/03/14 06:37:38;;;;;;;4.53;1.80;;;4.20;99.90;;;;;;5044649;28;20092;-69
2021/03/14 06:40:11;;;;;;;6.37;1.93;;;4.10;99.90;;;;;;5042806;28;20101;-68
2021/03/14 06:42:38;;;;;;;6.40;2.03;;;4.10;99.90;;;;;;5043794;28;20091;-69
2021/03/14 06:45:08;;;;;;;5.13;2.17;;;4.00;99.90;;;;;;5043715;28;20229;-68
2021/03/14 06:47:40;;;;;;;6.73;2.20;;;4.10;99.90;;;;;;5044866;28;20421;-68
2021/03/14 06:50:08;;;;;;;4.20;1.80;;;4.00;99.90;;;;;;5044624;28;20052;-68
2021/03/14 06:52:35;;;;;;;9.63;2.30;;;4.10;99.90;;;;;;5044679;28;20136;-69
2021/03/14 06:55:02;;;;;;;6.23;2.03;;;4.10;99.90;;;;;;5044842;28;20600;-69
2021/03/14 06:57:28;;;;;;;4.83;1.93;;;4.20;99.90;;;;;;5043233;28;20136;-69
2021/03/14 06:59:58;;;;;;;7.67;2.10;;;4.30;99.90;;;;;;5043608;28;20107;-68
2021/03/14 07:02:26;;;;;;;5.60;1.80;;;4.20;99.90;;;;;;5043511;28;20091;-68
2021/03/14 07:04:54;;;;;;;5.23;2.20;;;4.20;99.90;;;;;;5046213;28;20063;-68
2021/03/14 07:07:24;;;;;;;4.90;2.20;;;4.20;99.90;;;;;;5046045;28;20216;-68
2021/03/14 07:09:56;;;;;;;5.03;2.30;;;4.20;99.90;;;;;;5045497;28;20102;-69
2021/03/14 07:12:25;;;;;;;5.03;2.33;;;4.20;99.90;;;;;;5043715;28;20079;-69
2021/03/14 07:14:52;;;;;;;6.47;2.20;;;4.30;99.90;;;;;;5062737;28;20052;-69
2021/03/14 07:17:34;;;;;;;6.07;2.40;;;4.40;99.90;;;;;;5064586;28;20052;-69
2021/03/14 07:20:05;;;;;;;8.50;2.93;;;4.40;99.90;;;;;;5043673;28;20408;-68
2021/03/14 07:22:31;;;;;;;4.90;2.80;;;4.40;99.90;;;;;;5042806;28;20132;-68
2021/03/14 07:24:58;;;;;;;5.03;2.60;;;4.50;99.90;;;;;;5043643;28;20139;-68
2021/03/14 07:27:26;;;;;;;8.53;2.53;;;4.50;99.90;;;;;;5043506;28;20122;-68
2021/03/14 07:29:54;;;;;;;5.77;2.90;;;4.60;99.90;;;;;;5043292;28;20045;-68
2021/03/14 07:32:21;;;;;;;7.53;2.97;;;4.50;99.90;;;;;;5039556;28;20049;-68
2021/03/14 07:34:49;;;;;;;8.80;3.20;;;4.50;99.90;;;;;;5041492;28;20044;-69
2021/03/14 07:37:16;;;;;;;9.83;4.33;;;4.50;99.90;;;;;;5041026;28;20608;-69
2021/03/14 07:39:45;;;;;;;6.40;2.70;;;4.70;99.90;;;;;;5041584;28;20051;-69
2021/03/14 07:42:13;;;;;;;6.67;3.23;;;4.80;99.90;;;;;;5042581;28;20071;-68
2021/03/14 07:44:40;;;;;;;8.33;3.10;;;4.90;99.90;;;;;;5042183;28;20090;-68
2021/03/14 07:47:07;;;;;;;7.70;3.30;;;4.90;99.90;;;;;;5042926;28;20041;-68
2021/03/14 07:49:37;;;;;;;7.00;2.80;;;4.90;99.90;;;;;;5042683;28;20129;-68
2021/03/14 07:52:08;;;;;;;7.40;3.00;;;4.90;99.90;;;;;;5042654;28;20180;-68
2021/03/14 07:54:39;;;;;;;9.33;3.40;;;4.90;99.90;;;;;;5042979;28;20470;-69
2021/03/14 07:57:08;;;;;;;8.80;3.00;;;5.00;99.90;;;;;;5042247;28;20107;-68
2021/03/14 07:59:35;;;;;;;7.47;3.10;;;5.00;99.90;;;;;;5042196;28;20479;-68
2021/03/14 08:02:30;;;;;;;9.07;3.03;;;4.80;99.90;;;;;;5041779;28;20057;-68
2021/03/14 08:04:58;;;;;;;8.30;3.43;;;4.70;99.90;;;;;;5041915;28;20497;-68
2021/03/14 08:07:42;;;;;;;8.30;3.60;;;4.70;99.90;;;;;;5042436;28;20092;-68
2021/03/14 08:10:11;;;;;;;7.43;3.13;;;4.60;99.90;;;;;;5039598;28;20064;-69
2021/03/14 08:12:39;;;;;;;10.37;3.63;;;4.60;99.90;;;;;;5039498;28;20524;-68
2021/03/14 08:15:21;;;;;;;7.33;2.87;;;4.50;99.90;;;;;;5042839;28;20114;-68
2021/03/14 08:17:49;;;;;;;7.03;3.57;;;4.50;99.90;;;;;;5040414;28;20055;-69
2021/03/14 08:20:16;;;;;;;5.67;2.63;;;4.70;99.90;;;;;;5039304;28;20135;-69
2021/03/14 08:22:48;;;;;;;8.20;3.17;;;4.80;99.90;;;;;;5040210;28;20650;-68
2021/03/14 08:25:25;;;;;;;6.33;2.73;;;4.90;99.90;;;;;;5041172;28;20075;-68
2021/03/14 08:27:53;;;;;;;6.25;2.75;;;5.00;99.90;;;;;;5041796;28;20090;-68
2021/03/14 08:30:42;;;;;;;6.40;1.93;;;5.20;99.90;;;;;;5040598;28;20135;-68
2021/03/14 08:33:32;;;;;;;5.60;2.53;;;5.40;99.90;;;;;;5040810;28;20175;-68
2021/03/14 08:36:01;;;;;;;7.27;2.30;;;5.70;99.90;;;;;;5040567;28;20048;-68
2021/03/14 08:38:32;;;;;;;8.93;3.05;;;6.40;99.90;;;;;;5038748;28;20094;-68
2021/03/14 08:41:23;;;;;;;4.13;1.67;;;7.40;99.90;;;;;;5042926;28;20958;-69
2021/03/14 08:43:52;;;;;;;3.00;1.13;;;8.60;99.90;;;;;;5034442;28;20059;-68
2021/03/14 08:46:19;;;;;;;7.72;1.58;;;9.00;99.90;;;;;;5041739;28;20463;-68
2021/03/14 08:48:46;;;;;;;5.68;1.92;;;8.90;99.90;;;;;;5042710;28;20095;-69
2021/03/14 08:51:13;;;;;;;5.32;2.25;;;8.70;99.90;;;;;;5041241;28;20668;-68
2021/03/14 08:53:41;;;;;;;5.88;1.63;;;8.90;99.90;;;;;;5040916;28;20072;-69
2021/03/14 08:56:09;;;;;;;7.82;2.00;;;8.30;99.90;;;;;;5040319;28;20059;-69
2021/03/14 08:58:37;;;;;;;5.85;1.88;;;8.10;99.90;;;;;;5041810;28;20060;-68
2021/03/14 09:01:06;;;;;;;6.30;1.20;;;7.60;99.90;;;;;;5043502;28;20049;-68
2021/03/14 09:03:39;;;;;;;4.47;1.63;;;6.60;99.90;;;;;;5040786;28;20440;-68
2021/03/14 09:06:26;;;;;;;3.27;1.37;;;6.20;99.90;;;;;;5040930;28;20058;-68
2021/03/14 09:08:58;;;;;;;3.75;1.40;;;6.30;99.90;;;;;;5042613;28;20052;-68
2021/03/14 09:11:42;;;;;;;5.00;1.67;;;6.20;99.90;;;;;;5041822;28;20076;-68
2021/03/14 09:14:37;;;;;;;5.17;1.33;;;6.00;99.90;;;;;;5040485;28;20090;-68
2021/03/14 09:17:07;;;;;;;5.47;1.87;;;6.40;99.90;;;;;;5040407;28;20072;-68
2021/03/14 09:19:36;;;;;;;9.63;2.43;;;6.10;99.90;;;;;;5043916;28;20501;-68
2021/03/14 09:22:05;;;;;;;4.37;1.33;;;6.30;99.90;;;;;;5043520;28;20053;-68
2021/03/14 09:24:35;;;;;;;6.63;1.65;;;6.90;99.90;;;;;;5043475;28;20121;-68
2021/03/14 09:27:04;;;;;;;4.13;1.63;;;7.10;99.90;;;;;;5044088;28;20912;-68
2021/03/14 09:29:46;;;;;;;5.45;1.38;;;7.10;99.90;;;;;;5040217;28;20052;-68
2021/03/14 09:32:18;;;;;;;5.63;1.70;;;6.70;99.90;;;;;;5044527;28;20092;-68
2021/03/14 09:34:45;;;;;;;5.07;1.85;;;6.80;99.90;;;;;;5044293;28;20064;-68
2021/03/14 09:37:12;;;;;;;4.18;1.65;;;7.10;99.90;;;;;;5046347;28;20133;-68
2021/03/14 09:39:39;;;;;;;5.60;1.55;;;7.80;99.90;;;;;;5044872;28;20137;-68
2021/03/14 09:42:25;;;;;;;5.82;1.75;;;7.70;99.90;;;;;;5057172;28;20194;-67
2021/03/14 09:45:03;;;;;;;;;;;7.30;99.90;;;;;;5050837;28;20493;-67
2021/03/14 09:47:29;;;;;;;9.33;1.90;;;6.40;99.90;;;;;;5051073;28;19920;-67
2021/03/14 09:50:00;;;;;;;6.47;2.13;;;6.40;99.90;;;;;;5051371;28;20452;-68
2021/03/14 09:52:27;;;;;;;7.33;2.10;;;6.20;99.90;;;;;;5050476;28;20048;-68
2021/03/14 09:54:54;;;;;;;7.95;1.80;;;6.60;99.90;;;;;;5051043;28;20274;-67
2021/03/14 09:57:21;;;;;;;4.63;1.88;;;7.00;99.90;;;;;;5050822;28;20082;-68
2021/03/14 09:59:49;;;;;;;3.25;1.60;;;7.10;99.90;;;;;;5049949;28;20045;-67
2021/03/14 10:02:15;;;;;;;8.65;2.60;;;7.00;99.90;;;;;;5049737;28;20099;-68
2021/03/14 10:04:46;;;;;;;5.82;1.80;;;6.80;99.90;;;;;;5051738;28;20113;-68
2021/03/14 10:07:23;;;;;;;7.45;2.13;;;7.10;99.90;;;;;;5049845;28;20048;-68
2021/03/14 10:09:50;;;;;;;4.80;1.90;;;7.00;99.90;;;;;;5047988;28;20136;-68
2021/03/14 10:12:18;;;;;;;8.02;2.03;;;6.90;99.90;;;;;;5048589;28;20055;-68
2021/03/14 10:14:45;;;;;;;7.72;1.85;;;7.10;99.90;;;;;;5047862;28;20084;-68
2021/03/14 10:17:12;;;;;;;5.30;1.77;;;7.20;99.90;;;;;;5047388;28;20084;-68
2021/03/14 10:19:40;;;;;;;7.38;2.10;;;7.20;99.90;;;;;;5049317;28;20052;-68
2021/03/14 10:22:07;;;;;;;5.40;1.95;;;7.70;99.90;;;;;;5057002;28;20067;-68
2021/03/14 10:24:44;;;;;;;4.30;1.55;;;8.30;99.90;;;;;;5063408;28;20055;-68
2021/03/14 10:27:10;;;;;;;5.18;1.83;;;8.30;99.90;;;;;;5054207;28;20118;-68
2021/03/14 10:29:40;;;;;;;4.88;1.38;;;8.10;99.90;;;;;;5049143;28;20051;-68
2021/03/14 10:32:19;;;;;;;10.20;2.00;;;7.40;99.90;;;;;;5047784;28;20076;-68
2021/03/14 10:34:51;;;;;;;5.35;1.55;;;7.30;99.90;;;;;;5047859;28;20512;-68
2021/03/14 10:37:32;;;;;;;7.85;1.90;;;6.70;99.90;;;;;;5048943;28;20497;-68
2021/03/14 10:40:00;;;;;;;6.68;1.67;;;6.70;99.90;;;;;;5047543;28;20448;-68
2021/03/14 10:42:35;;;;;;;6.23;2.47;;;6.60;99.90;;;;;;5048394;28;20045;-68
2021/03/14 10:45:09;;;;;;;3.97;1.57;;;6.60;99.90;;;;;;5048047;28;20048;-68
2021/03/14 10:47:36;;;;;;;4.97;1.80;;;6.30;99.90;;;;;;5048188;28;20908;-67
2021/03/14 10:50:19;;;;;;;11.87;3.63;;;6.40;99.90;;;;;;5046665;28;20642;-68
2021/03/14 10:53:05;;;;;;;4.50;1.70;;;6.40;99.90;;;;;;5046677;28;20068;-68
2021/03/14 10:55:32;;;;;;;4.53;1.60;;;6.40;99.90;;;;;;5047937;28;20044;-68
2021/03/14 10:58:09;;;;;;;7.45;1.80;;;6.30;99.90;;;;;;5049392;28;20078;-69
2021/03/14 11:00:38;;;;;;;4.38;1.30;;;6.60;99.90;;;;;;5050842;28;20435;-68
2021/03/14 11:03:12;;;;;;;6.43;1.75;;;7.00;99.90;;;;;;5049826;28;20105;-68
2021/03/14 11:05:40;;;;;;;6.88;1.35;;;7.20;99.90;;;;;;5050353;28;20533;-68
2021/03/14 11:08:06;;;;;;;7.40;1.42;;;7.40;99.90;;;;;;5044613;28;20049;-69
2021/03/14 11:10:33;;;;;;;4.75;1.25;;;7.40;99.90;;;;;;5041899;28;20127;-69
2021/03/14 11:13:00;;;;;;;6.03;1.52;;;7.30;99.90;;;;;;5045577;28;21108;-70
2021/03/14 11:15:28;;;;;;;6.40;1.80;;;7.20;99.90;;;;;;5043664;28;20044;-69
2021/03/14 11:17:57;;;;;;;9.07;1.35;;;7.00;99.90;;;;;;5043594;28;20052;-69
2021/03/14 11:20:26;;;;;;;3.45;1.30;;;7.10;99.90;;;;;;5039710;28;20048;-68
2021/03/14 11:22:53;;;;;;;8.93;2.23;;;6.80;99.90;;;;;;5043195;28;20056;-68
2021/03/14 11:25:24;;;;;;;5.33;1.60;;;6.60;99.90;;;;;;5047181;28;20052;-69
2021/03/14 11:27:52;;;;;;;9.07;1.80;;;6.90;99.90;;;;;;5043587;28;20359;-69
2021/03/14 11:30:20;;;;;;;6.10;1.43;;;6.70;99.90;;;;;;5045079;28;20162;-68
2021/03/14 11:32:47;;;;;;;5.23;1.90;;;6.70;99.90;;;;;;5042634;28;20063;-69
2021/03/14 11:35:15;;;;;;;4.93;1.30;;;6.90;99.90;;;;;;5053639;28;20048;-67
2021/03/14 11:37:41;;;;;;;4.38;1.05;;;7.00;99.90;;;;;;5050640;28;20125;-67
2021/03/14 11:40:10;;;;;;;5.53;1.48;;;7.20;99.90;;;;;;5053191;28;20048;-67
2021/03/14 11:42:37;;;;;;;7.70;1.27;;;7.30;99.90;;;;;;5053105;28;20052;-67
2021/03/14 11:45:04;;;;;;;6.97;1.85;;;7.00;99.90;;;;;;5044285;28;20071;-67
2021/03/14 11:47:31;;;;;;;5.90;1.50;;;7.10;99.90;;;;;;5041894;28;20488;-67
2021/03/14 11:49:57;;;;;;;4.75;1.75;;;7.20;99.90;;;;;;5040968;28;20825;-67
2021/03/14 11:52:24;;;;;;;;;;;7.40;99.90;;;;;;5041847;28;20571;-68
2021/03/14 11:54:51;;;;;;;4.82;1.50;;;7.40;99.90;;;;;;5042060;28;19943;-67
2021/03/14 11:57:17;;;;;;;4.15;1.67;;;7.60;99.90;;;;;;5042048;28;20136;-67
2021/03/14 11:59:44;;;;;;;4.22;1.23;;;7.90;99.90;;;;;;5041363;28;20659;-67
2021/03/14 12:02:10;;;;;;;8.93;1.33;;;7.90;99.90;;;;;;5046645;28;20676;-67
2021/03/14 12:04:36;;;;;;;;;;;8.00;99.90;;;;;;5047127;28;20049;-67
2021/03/14 12:07:03;;;;;;;6.70;1.15;;;7.90;99.90;;;;;;5050337;28;20022;-67
2021/03/14 12:09:31;;;;;;;5.78;1.23;;;8.10;99.90;;;;;;5051033;28;20512;-67
2021/03/14 12:11:58;;;;;;;8.25;2.22;;;8.10;99.90;;;;;;5053971;28;20052;-67
2021/03/14 12:14:25;;;;;;;6.15;1.40;;;8.00;99.90;;;;;;5053389;28;20063;-67
2021/03/14 12:16:51;;;;;;;3.85;1.27;;;7.70;99.90;;;;;;5049544;28;20060;-67
2021/03/14 12:19:18;;;;;;;6.65;1.38;;;7.80;99.90;;;;;;5049441;28;20062;-67
2021/03/14 12:21:44;;;;;;;;;;;7.80;99.90;;;;;;5054905;28;20063;-67
2021/03/14 12:24:11;;;;;;;8.45;2.47;;;7.80;99.90;;;;;;5053542;28;20344;-67
2021/03/14 12:26:38;;;;;;;7.95;1.27;;;7.70;99.90;;;;;;5054845;28;20068;-67
2021/03/14 12:29:06;;;;;;;2.55;1.20;;;8.30;99.90;;;;;;5054324;28;20906;-67
2021/03/14 12:31:33;;;;;;;5.88;2.03;;;9.30;99.90;;;;;;5053700;28;20052;-67
2021/03/14 12:34:00;;;;;;;4.30;1.13;;;10.70;99.90;;;;;;5054765;28;20080;-67
2021/03/14 12:36:26;;;;;;;;;;;11.40;99.90;;;;;;5054923;28;20409;-67
2021/03/14 12:38:52;;;;;;;5.00;1.45;;;12.30;99.90;;;;;;5053631;28;19924;-67
2021/03/14 12:41:18;;;;;;;;;;;11.50;99.90;;;;;;5054703;28;20284;-67
2021/03/14 12:43:46;;;;;;;5.97;1.48;;;11.40;99.90;;;;;;5052294;28;20011;-67
2021/03/14 12:46:13;;;;;;;3.30;1.00;;;11.20;99.90;;;;;;5049214;28;20102;-67
2021/03/14 12:48:39;;;;;;;;;;;11.00;99.90;;;;;;5046242;28;20139;-67
2021/03/14 12:51:06;;;;;;;3.97;1.20;;;10.50;99.90;;;;;;5048807;28;19971;-67
2021/03/14 12:53:32;;;;;;;5.40;1.58;;;9.80;99.90;;;;;;5050309;28;20142;-68
2021/03/14 12:55:59;;;;;;;2.15;0.80;;;9.60;99.90;;;;;;5055356;28;20508;-67
2021/03/14 12:58:26;;;;;;;5.38;1.25;;;8.80;99.90;;;;;;5051311;28;20051;-67
2021/03/14 13:00:53;;;;;;;3.63;1.10;;;8.60;99.90;;;;;;5049245;28;20292;-67
2021/03/14 13:03:20;;;;;;;2.72;0.95;;;8.60;99.90;;;;;;5049477;28;20052;-67
2021/03/14 13:05:46;;;;;;;3.08;0.80;;;8.30;99.90;;;;;;5050252;28;20052;-67